Date,TemperatureHighF,TemperatureAvgF,TemperatureLowF,DewpointHighF,DewpointAvgF,DewpointLowF,HumidityHigh,HumidityAvg,HumidityLow,PressureMaxIn,PressureMinIn,WindSpeedMaxMPH,WindSpeedAvgMPH,GustSpeedMaxMPH,PrecipitationSumIn
2013-1-1,35,27,15,29,16,4,84,62,41,29.83,29.57,21,12,35,0.00
2013-1-2,22,16,7,8,4,-4,67,59,47,29.99,29.81,20,12,35,0.00
2013-1-3,22,22,22,5,5,5,48,48,47,29.95,29.95,3,2,7,0.00
2013-1-4,37,37,36,28,28,27,72,71,68,29.72,29.70,15,13,30,0.00
2013-1-5,36,31,22,29,18,9,76,59,44,30.25,29.70,21,10,35,0.00
2013-1-6,36,31,24,32,25,14,93,80,64,30.21,29.88,17,6,24,0.02
2013-1-7,36,26,19,31,20,12,93,77,57,30.39,29.91,24,8,30,0.00
2013-1-8,41,38,32,34,30,21,82,72,62,30.32,30.16,27,13,40,0.01
2013-1-9,44,38,26,40,32,23,91,79,70,30.38,29.83,24,11,34,0.01
2013-1-10,44,40,31,33,28,22,79,62,51,30.49,29.85,24,14,43,0.00
2013-1-11,42,33,27,36,25,18,80,71,63,30.51,30.23,13,6,18,0.00
2013-1-12,45,43,41,44,40,36,98,90,80,30.24,30.08,17,7,21,0.00
2013-1-13,47,44,42,47,44,41,99,98,98,30.13,29.92,18,8,24,0.00
2013-1-14,52,46,38,49,41,25,99,85,56,30.17,29.83,16,8,25,0.00
2013-1-15,39,36,32,28,24,20,73,63,58,30.28,30.17,10,4,20,0.00
2013-1-16,42,37,33,40,33,21,96,86,60,30.25,29.74,22,14,28,0.60
2013-1-17,40,31,17,34,23,-1,96,73,44,30.11,29.74,15,9,29,0.00
2013-1-18,24,16,8,11,-2,-9,58,46,35,30.38,30.06,16,9,27,0.00
2013-1-19,44,38,24,37,29,10,84,71,55,30.34,29.86,29,14,43,0.00
2013-1-20,47,42,28,40,32,15,85,68,37,29.84,29.41,31,19,46,0.00
2013-1-21,28,22,16,19,8,0,89,57,32,30.02,29.79,16,7,28,0.00
2013-1-22,22,16,10,19,7,-6,88,68,46,29.99,29.72,17,7,29,0.00
2013-1-23,10,5,2,-6,-9,-12,62,51,43,30.05,29.99,20,13,35,0.00
2013-1-24,13,7,0,-3,-7,-12,71,54,37,30.08,29.90,22,14,35,0.00
2013-1-25,21,13,6,2,-1,-6,71,54,38,30.17,30.04,19,10,32,0.00
2013-1-26,22,15,9,3,-1,-4,60,48,36,30.08,29.94,19,9,33,0.00
2013-1-27,24,18,13,5,2,-2,61,49,36,30.38,30.08,18,11,30,0.00
2013-1-28,28,21,13,24,8,-5,93,60,32,30.40,30.04,10,4,17,0.00
2013-1-29,41,30,22,37,26,20,93,88,80,30.19,30.04,20,5,26,0.16
2013-1-30,50,45,41,49,44,37,98,96,86,30.13,29.44,30,21,39,0.21
2013-1-31,53,44,33,52,37,18,98,77,51,29.44,28.88,47,24,60,0.26
2013-2-1,32,27,17,20,12,5,64,52,38,29.99,29.41,26,14,42,0.00
2013-2-2,28,22,15,23,11,2,92,65,52,30.18,30.00,14,7,25,0.00
2013-2-3,26,24,22,22,20,16,92,82,72,30.02,29.64,12,5,18,0.00
2013-2-4,28,24,18,18,10,2,80,57,39,29.83,29.61,25,12,34,0.00
2013-2-5,26,20,13,18,4,-3,71,51,37,30.01,29.84,12,6,19,0.00
2013-2-6,37,29,18,30,19,-2,86,68,36,30.24,29.90,17,8,26,0.00
2013-2-7,20,15,11,8,-5,-13,65,40,23,30.56,30.26,14,7,26,0.00
2013-2-8,27,20,15,26,18,6,96,89,60,30.55,29.82,35,20,44,0.00
2013-2-9,18,14,11,16,12,9,93,92,91,30.05,29.57,27,16,44,0.01
2013-2-10,35,24,15,16,10,4,91,58,32,30.32,30.06,16,9,30,0.00
2013-2-11,42,34,19,42,30,7,98,85,50,30.32,29.54,22,10,27,0.57
2013-2-12,44,38,33,35,32,30,97,81,62,29.74,29.48,15,8,26,0.02
2013-2-13,41,36,33,32,28,23,80,73,57,29.79,29.71,14,6,19,0.00
2013-2-14,42,35,30,28,22,19,79,60,42,29.97,29.68,12,5,18,0.00
2013-2-15,42,39,33,39,36,28,94,88,79,29.98,29.88,18,11,25,0.00
2013-2-16,38,34,26,37,31,24,96,91,85,29.91,29.72,13,6,27,0.01
2013-2-17,26,22,19,23,16,8,91,76,58,29.71,29.07,30,17,58,0.00
2013-2-18,31,23,17,13,8,3,64,51,40,29.99,29.39,29,19,46,0.00
2013-2-19,43,33,23,42,21,4,96,63,40,30.08,29.57,29,11,35,0.27
2013-2-20,44,36,30,42,29,18,97,78,57,29.60,29.39,30,12,37,0.22
2013-2-21,33,28,23,26,18,11,80,67,53,30.08,29.61,20,11,35,0.00
2013-2-22,39,33,28,28,24,21,79,69,52,30.35,30.09,11,6,21,0.00
2013-2-23,38,34,31,33,30,26,93,85,76,30.33,30.00,22,14,26,0.00
2013-2-24,35,32,28,33,30,27,97,96,91,30.00,29.75,22,11,27,0.04
2013-2-25,41,31,25,32,27,23,96,86,57,30.21,29.86,9,4,16,0.28
2013-2-26,42,35,30,34,30,26,90,82,63,30.34,30.22,7,4,9,0.00
2013-2-27,38,36,33,36,33,31,97,90,81,30.23,29.64,37,23,49,0.18
2013-2-28,40,38,33,40,37,32,98,96,93,29.64,29.50,33,10,44,0.05
2013-3-1,34,33,32,32,31,30,96,94,88,29.63,29.48,11,6,20,0.01
2013-3-2,40,34,32,33,32,31,97,91,75,29.61,29.57,11,7,21,0.17
2013-3-3,42,37,33,37,33,29,97,87,77,29.58,29.47,10,6,16,0.07
2013-3-4,35,33,31,31,28,26,96,85,75,29.63,29.45,17,11,29,0.01
2013-3-5,44,38,32,36,34,32,97,87,69,30.08,29.63,14,8,22,0.09
2013-3-6,38,36,34,34,32,28,93,85,79,30.22,30.08,29,19,39,0.00
2013-3-7,37,35,31,29,28,26,93,76,65,30.17,30.02,22,16,37,0.00
2013-3-8,46,37,30,29,25,20,94,64,37,30.15,29.98,19,12,35,0.00
2013-3-9,42,36,30,34,28,24,80,73,62,30.35,30.15,14,9,22,0.00
2013-3-10,39,34,28,33,29,25,90,83,72,30.41,30.28,13,7,16,0.00
2013-3-11,41,39,37,40,37,34,96,91,87,30.31,30.15,18,12,24,0.00
2013-3-12,45,42,40,44,41,39,98,96,93,30.16,29.73,28,15,35,0.57
2013-3-13,49,44,41,45,42,39,99,94,72,29.73,29.64,25,9,33,0.09
2013-3-14,41,34,23,34,25,11,85,70,58,29.70,29.59,17,11,29,0.00
2013-3-15,35,26,19,24,14,8,78,60,40,29.76,29.58,18,9,30,0.00
2013-3-16,37,31,26,25,18,11,81,60,37,29.86,29.59,14,7,22,0.00
2013-3-17,33,26,21,15,8,0,66,46,32,30.28,29.87,22,8,34,0.00
2013-3-18,35,27,18,22,11,0,65,50,31,30.42,30.27,14,6,22,0.00
2013-3-19,34,31,25,31,28,21,98,90,60,30.27,29.59,36,21,47,0.00
2013-3-20,34,28,21,32,26,20,99,93,75,29.70,29.57,18,10,31,0.12
2013-3-21,37,32,28,30,24,20,92,73,58,29.75,29.58,16,7,33,0.02
2013-3-22,39,32,25,29,22,18,93,69,47,29.62,29.55,13,7,22,0.00
2013-3-23,41,34,29,26,23,18,75,63,48,29.62,29.45,23,14,40,0.00
2013-3-24,46,38,34,28,26,24,72,61,45,29.75,29.59,15,8,29,0.00
2013-3-25,42,37,32,36,31,25,90,79,70,29.74,29.55,16,9,24,0.03
2013-3-26,48,40,32,32,26,24,84,59,40,29.69,29.51,13,7,25,0.00
2013-3-27,45,39,34,38,32,26,94,76,59,29.82,29.67,12,6,22,0.10
2013-3-28,48,41,36,39,35,33,94,79,57,29.94,29.82,11,6,18,0.00
2013-3-29,56,46,39,38,34,30,80,63,40,29.99,29.90,11,6,22,0.00
2013-3-30,49,42,36,40,34,26,82,72,54,30.06,29.96,14,6,18,0.00
2013-3-31,49,42,32,40,31,18,87,68,45,30.10,29.85,18,7,23,0.00
2013-4-1,48,42,36,44,40,21,100,90,54,29.83,29.46,25,11,32,0.61
2013-4-2,38,34,29,23,18,13,65,52,37,29.80,29.64,21,11,32,0.00
2013-4-3,44,36,31,21,17,12,64,48,29,30.01,29.76,20,14,34,0.00
2013-4-4,45,38,32,37,24,10,84,57,25,30.18,29.94,26,15,34,0.00
2013-4-5,47,42,38,41,35,25,86,76,44,29.94,29.63,22,13,30,0.00
2013-4-6,41,34,28,28,12,5,68,40,25,30.32,29.77,23,12,35,0.00
2013-4-7,43,39,30,40,29,7,92,69,36,30.33,29.96,29,17,36,0.00
2013-4-8,59,47,41,42,39,35,94,75,41,30.13,29.87,20,8,25,0.00
2013-4-9,46,43,41,44,40,38,97,92,80,30.11,29.86,16,6,21,0.07
2013-4-10,48,43,41,47,42,39,100,96,90,29.98,29.87,10,4,14,0.29
2013-4-11,46,43,39,43,37,18,97,81,41,30.17,29.83,12,6,22,0.03
2013-4-12,39,37,36,36,27,17,95,71,41,30.24,29.84,28,16,36,0.16
2013-4-13,48,40,34,42,37,33,96,90,74,29.90,29.74,28,7,33,0.14
2013-4-14,50,43,39,44,40,37,96,91,76,30.14,29.87,13,5,15,0.10
2013-4-15,47,41,35,42,38,32,95,88,81,30.42,30.15,13,7,16,0.00
2013-4-16,46,44,40,44,42,39,100,92,87,30.41,29.93,30,17,39,0.01
2013-4-17,60,52,46,47,34,24,95,55,30,30.33,29.93,16,8,26,0.00
2013-4-18,47,44,40,41,34,24,90,70,41,30.46,30.18,20,10,26,0.00
2013-4-19,51,47,44,51,46,41,99,97,90,30.18,29.65,27,15,34,0.00
2013-4-20,54,48,45,51,43,28,99,83,44,30.10,29.55,29,12,35,0.20
2013-4-21,52,43,37,38,26,21,77,54,30,30.67,30.11,14,7,22,0.00
2013-4-22,47,41,36,40,30,17,78,65,43,30.80,30.63,19,11,23,0.00
2013-4-23,43,41,39,42,37,29,96,86,64,30.63,30.17,20,16,26,0.01
2013-4-24,57,47,43,52,45,42,97,93,81,30.16,29.75,18,9,28,0.52
2013-4-25,62,51,45,49,41,29,97,73,38,30.26,29.78,28,9,35,0.03
2013-4-26,52,46,41,43,35,29,80,66,49,30.44,30.26,13,7,17,0.00
2013-4-27,51,45,40,44,40,35,93,84,74,30.41,30.30,11,6,13,0.00
2013-4-28,54,47,39,49,43,36,94,84,74,30.34,30.24,9,4,12,0.00
2013-4-29,55,48,41,50,44,38,97,89,79,30.28,30.22,5,3,8,0.00
2013-4-30,58,48,41,51,45,40,96,88,77,30.36,30.24,10,3,13,0.00
2013-5-1,56,48,40,50,45,38,96,87,75,30.47,30.35,9,4,12,0.00
2013-5-2,52,48,43,48,43,40,97,86,70,30.50,30.39,25,9,32,0.00
2013-5-3,54,48,42,47,42,38,92,82,74,30.54,30.37,18,7,25,0.00
2013-5-4,51,46,41,46,42,38,94,85,71,30.39,30.32,13,7,15,0.00
2013-5-5,54,46,39,45,42,38,95,85,70,30.32,30.25,12,8,14,0.00
2013-5-6,54,47,43,50,45,41,98,93,81,30.28,30.16,10,6,13,0.00
2013-5-7,58,49,44,53,48,43,99,95,83,30.17,30.10,9,4,11,0.00
2013-5-8,61,53,48,58,52,47,98,95,85,30.25,30.11,15,4,17,0.00
2013-5-9,53,51,49,52,50,49,99,98,97,30.11,29.89,15,7,18,0.31
2013-5-10,55,51,48,54,50,48,99,98,93,29.96,29.87,9,4,11,0.01
2013-5-11,56,52,49,54,51,48,99,97,92,29.93,29.67,25,12,30,0.16
2013-5-12,56,52,50,55,51,44,100,96,76,29.69,29.53,14,4,20,0.12
2013-5-13,52,49,46,44,40,34,86,72,56,29.98,29.69,22,12,29,0.00
2013-5-14,55,48,42,44,38,31,87,69,43,29.99,29.92,13,5,22,0.00
2013-5-15,54,49,42,48,43,34,96,81,60,30.00,29.64,23,10,30,0.35
2013-5-16,66,55,46,53,49,44,97,83,46,29.76,29.54,22,6,26,0.00
2013-5-17,64,56,48,47,42,37,89,62,39,30.18,29.76,16,6,24,0.00
2013-5-18,53,49,42,49,44,38,91,84,75,30.34,30.17,15,8,18,0.00
2013-5-19,54,50,48,50,47,45,98,90,84,30.36,30.24,16,9,19,0.06
2013-5-20,60,53,49,59,52,48,99,97,88,30.23,29.90,17,5,22,0.84
2013-5-21,51,48,48,51,48,47,98,97,96,30.04,29.94,20,11,25,0.17
2013-5-22,51,49,48,50,48,47,100,98,95,30.10,29.89,20,11,23,0.56
2013-5-23,55,52,48,55,51,47,99,98,97,29.94,29.80,22,6,28,0.00
2013-5-24,57,54,51,57,54,51,100,100,98,29.81,29.62,27,11,33,1.37
2013-5-25,52,50,48,51,49,48,99,97,96,29.79,29.61,21,12,30,0.34
2013-5-26,56,50,47,49,46,41,99,88,66,29.94,29.55,22,11,27,0.13
2013-5-27,67,56,45,43,38,34,82,55,30,30.14,29.94,18,8,28,0.00
2013-5-28,61,54,44,53,47,39,93,76,58,30.23,30.14,11,5,14,0.00
2013-5-29,53,51,51,52,51,49,99,98,93,30.19,29.98,13,5,17,0.08
2013-5-30,65,58,51,64,56,50,100,93,79,30.01,29.94,12,3,16,0.00
2013-5-31,70,63,56,64,59,54,98,88,78,30.02,29.87,11,4,17,0.00
2013-6-1,68,63,59,63,59,56,93,88,79,29.90,29.79,13,5,22,0.00
2013-6-2,64,60,55,61,58,54,98,92,86,29.81,29.67,25,9,31,0.16
2013-6-3,61,57,54,59,56,54,100,96,91,29.80,29.70,13,6,22,0.03
2013-6-4,65,60,52,57,47,42,98,66,44,30.02,29.74,21,7,31,0.01
2013-6-5,62,57,53,54,48,40,87,74,49,30.15,30.02,16,6,19,0.00
2013-6-6,62,57,51,56,52,47,95,84,69,30.20,30.13,10,5,12,0.00
2013-6-7,56,54,52,53,51,50,97,91,81,30.14,29.91,21,11,26,0.41
2013-6-8,68,57,52,60,55,51,99,93,75,29.95,29.59,27,12,34,1.37
2013-6-9,64,59,55,60,56,54,96,90,82,30.12,29.95,8,3,12,0.00
2013-6-10,63,58,55,58,55,54,97,89,83,30.20,30.04,8,3,12,0.00
2013-6-11,55,53,52,54,53,51,98,98,97,30.05,29.50,27,13,37,0.79
2013-6-12,61,57,54,59,56,53,98,95,87,29.72,29.47,12,6,26,0.10
2013-6-13,60,56,54,58,54,51,94,91,86,29.77,29.72,14,3,16,0.00
2013-6-14,61,57,54,57,55,52,97,93,86,29.73,29.65,12,3,17,0.00
2013-6-15,75,62,54,55,51,43,96,70,33,29.87,29.71,10,6,20,0.00
2013-6-16,65,60,56,59,56,53,94,87,77,29.88,29.69,11,4,15,0.00
2013-6-17,67,61,57,62,59,55,96,91,81,29.84,29.70,25,6,36,0.44
2013-6-18,67,61,58,61,57,54,97,89,74,29.95,29.82,8,3,12,0.00
2013-6-19,75,63,55,59,53,43,95,73,34,30.11,29.89,10,5,17,0.01
2013-6-20,68,61,54,60,54,46,92,78,65,30.23,30.11,9,4,13,0.00
2013-6-21,68,62,58,62,59,56,96,89,78,30.21,30.16,9,4,13,0.00
2013-6-22,68,63,58,64,60,57,95,91,84,30.18,30.09,8,3,11,0.18
2013-6-23,70,63,60,68,61,59,97,93,86,30.13,29.92,17,4,27,0.29
2013-6-24,78,68,61,71,64,60,98,90,71,29.93,29.79,13,5,24,0.00
2013-6-25,76,69,64,69,65,62,97,88,73,29.83,29.69,13,4,25,0.55
2013-6-26,70,63,56,69,62,55,99,96,88,29.87,29.67,25,7,30,0.23
2013-6-27,57,54,53,56,54,52,99,97,93,29.88,29.83,20,12,24,0.42
2013-6-28,61,57,53,61,57,53,100,99,98,29.83,29.53,24,12,30,0.99
2013-6-29,62,60,58,62,59,58,100,100,98,29.69,29.54,19,7,24,0.03
2013-6-30,64,61,58,64,61,58,100,99,97,29.92,29.69,9,4,18,0.00
2013-7-1,65,62,59,64,62,59,100,99,97,30.09,29.92,8,3,12,0.11
2013-7-2,62,58,56,62,58,55,100,99,99,30.21,30.07,15,8,21,0.74
2013-7-3,63,59,57,62,59,56,100,99,96,30.19,30.15,7,2,9,0.04
2013-7-4,74,70,65,70,67,64,97,92,87,30.15,30.03,7,3,10,0.00
2013-7-5,75,70,65,71,67,63,98,93,83,30.10,29.97,10,4,15,0.00
2013-7-6,78,72,66,72,68,64,98,89,66,30.00,29.90,7,4,12,0.00
2013-7-7,79,72,66,69,66,61,89,80,68,29.95,29.88,8,3,12,0.00
2013-7-8,74,68,63,69,64,60,97,86,73,30.07,29.88,14,5,35,0.66
2013-7-9,64,62,59,62,60,57,100,93,81,30.11,30.05,12,6,15,0.16
2013-7-10,66,60,59,66,60,59,100,99,97,30.08,29.77,14,8,16,0.02
2013-7-11,75,67,62,73,66,62,100,99,85,29.94,29.73,8,3,12,0.00
2013-7-12,73,68,61,67,60,57,88,75,65,30.20,29.93,10,5,18,0.00
2013-7-13,73,66,58,67,62,56,96,86,76,30.31,30.19,6,2,8,0.00
2013-7-14,75,68,63,70,66,62,99,93,83,30.27,30.16,8,4,12,0.00
2013-7-15,83,74,67,72,69,65,94,85,68,30.16,30.05,11,5,18,0.00
2013-7-16,87,77,69,74,70,67,93,77,61,30.16,30.05,9,4,15,0.00
2013-7-17,76,70,66,71,68,64,96,90,84,30.16,29.92,15,5,25,0.19
2013-7-18,79,72,67,73,69,66,99,90,75,29.99,29.90,11,4,21,0.01
2013-7-19,76,71,67,72,68,66,98,92,83,29.95,29.63,18,7,29,0.00
2013-7-20,75,70,66,72,67,64,97,89,80,29.75,29.59,14,6,26,0.00
2013-7-21,73,68,63,65,61,56,95,78,64,30.01,29.75,8,3,13,0.00
2013-7-22,69,65,63,64,62,61,97,91,79,30.04,29.92,11,6,13,0.00
2013-7-23,68,64,61,68,63,60,100,99,94,29.91,29.51,15,7,19,0.27
2013-7-24,77,68,60,72,65,54,100,91,68,29.94,29.56,9,3,18,0.00
2013-7-25,66,61,57,60,55,50,95,81,68,30.10,29.95,9,4,18,0.11
2013-7-26,68,65,60,66,63,58,97,94,89,30.06,29.85,12,7,23,0.30
2013-7-27,70,66,62,66,63,60,97,92,85,30.02,29.89,10,4,17,0.04
2013-7-28,65,62,59,63,61,58,100,97,93,30.04,29.99,20,8,24,0.03
2013-7-29,66,61,58,64,60,58,100,97,90,30.07,29.99,11,4,14,0.14
2013-7-30,76,66,62,68,63,60,100,92,63,30.05,29.99,9,4,15,0.01
2013-7-31,75,66,59,65,61,57,95,86,63,30.10,30.03,12,5,16,0.00
2013-8-1,72,65,60,69,64,59,99,94,85,30.04,29.88,12,5,15,0.00
2013-8-2,68,64,62,67,64,62,99,98,93,29.88,29.75,11,4,13,0.54
2013-8-3,70,65,62,66,63,60,98,91,84,29.81,29.71,11,5,15,0.01
2013-8-4,74,65,60,66,60,57,92,84,68,29.81,29.72,14,4,25,0.10
2013-8-5,72,64,57,58,53,46,92,70,50,30.01,29.80,16,7,23,0.00
2013-8-6,71,63,56,63,55,46,83,74,61,30.14,30.00,10,6,14,0.00
2013-8-7,70,64,57,64,60,54,96,89,80,30.19,30.13,10,5,13,0.00
2013-8-8,69,64,62,67,62,60,98,94,88,30.13,30.01,13,6,15,0.31
2013-8-9,66,64,63,66,64,62,99,99,97,30.01,29.70,24,10,34,0.67
2013-8-10,79,67,60,67,59,51,100,79,40,29.97,29.72,12,4,20,0.00
2013-8-11,70,63,56,62,57,51,91,79,62,30.03,29.96,13,6,18,0.00
2013-8-12,70,64,59,64,61,57,95,89,82,29.99,29.89,10,4,14,0.00
2013-8-13,67,64,59,66,62,58,98,94,83,29.90,29.69,8,2,11,0.00
2013-8-14,75,65,61,66,60,50,100,84,50,29.85,29.60,14,6,23,0.01
2013-8-15,68,62,58,61,56,50,92,81,67,30.06,29.85,13,6,17,0.00
2013-8-16,69,63,56,64,59,54,96,89,70,30.16,30.05,9,3,11,0.00
2013-8-17,71,64,57,65,61,55,96,87,71,30.26,30.16,8,4,17,0.00
2013-8-18,70,64,59,65,60,55,94,89,79,30.25,30.03,8,4,12,0.00
2013-8-19,71,65,61,64,62,60,95,89,77,30.03,29.88,11,5,18,0.00
2013-8-20,72,68,64,65,63,60,93,84,78,30.06,29.92,10,4,15,0.00
2013-8-21,74,68,62,68,64,60,96,89,79,30.11,29.97,8,3,11,0.00
2013-8-22,73,66,62,68,64,61,96,92,83,29.97,29.75,15,5,19,0.00
2013-8-23,78,69,62,67,57,49,96,68,40,30.11,29.75,12,6,27,0.00
2013-8-24,71,63,54,62,54,48,83,72,50,30.28,30.11,11,6,16,0.00
2013-8-25,70,63,54,64,58,51,93,83,71,30.33,30.14,10,4,14,0.00
2013-8-26,69,64,61,64,61,59,96,92,83,30.13,29.84,11,4,16,0.04
2013-8-27,75,68,62,68,64,60,96,89,77,29.89,29.82,7,2,10,0.00
2013-8-28,66,62,60,64,61,59,97,96,90,29.99,29.86,9,3,13,0.00
2013-8-29,67,64,58,64,60,55,97,88,78,30.09,29.97,17,8,23,0.00
2013-8-30,70,64,57,65,60,55,94,89,81,30.01,29.76,13,6,18,0.00
2013-8-31,72,66,63,68,64,62,96,93,83,29.81,29.75,7,2,19,0.00
2013-9-1,76,69,65,72,67,63,97,93,82,29.91,29.75,8,4,12,0.01
2013-9-2,66,63,60,65,62,59,97,96,96,29.91,29.73,25,10,30,5.42
2013-9-3,70,66,63,68,64,62,97,96,92,29.77,29.69,8,2,13,0.01
2013-9-4,72,67,62,64,61,57,95,83,66,29.87,29.72,11,5,17,0.00
2013-9-5,66,60,53,59,54,44,93,81,62,30.12,29.84,10,4,13,0.23
2013-9-6,65,57,49,56,48,40,87,73,43,30.20,30.01,15,8,21,0.00
2013-9-7,66,62,57,60,56,52,88,82,72,30.02,29.77,13,6,18,0.00
2013-9-8,66,60,52,60,51,42,93,74,48,30.05,29.69,16,6,31,0.26
2013-9-9,62,56,48,56,49,41,92,77,65,30.19,30.04,21,9,27,0.00
2013-9-10,62,59,57,60,57,54,96,92,88,30.10,30.01,16,6,20,0.00
2013-9-11,71,64,59,67,62,58,96,94,86,30.04,29.88,19,5,33,0.22
2013-9-12,69,63,60,67,62,59,97,95,91,29.98,29.65,13,5,22,0.12
2013-9-13,66,62,60,64,61,58,97,96,94,29.69,29.56,11,3,22,0.68
2013-9-14,68,61,56,62,57,50,96,87,74,30.00,29.69,11,6,19,0.00
2013-9-15,64,58,51,57,53,48,93,85,73,30.12,29.99,13,6,17,0.00
2013-9-16,65,57,46,59,52,38,93,83,71,30.23,29.95,11,5,20,0.00
2013-9-17,66,52,42,52,43,36,87,71,44,30.38,30.23,9,5,18,0.00
2013-9-18,64,56,48,57,52,45,92,84,74,30.27,30.07,11,6,16,0.00
2013-9-19,66,59,52,59,53,47,91,83,66,30.11,30.01,11,4,15,0.00
2013-9-20,68,59,50,59,54,48,95,84,66,30.09,30.01,8,3,11,0.00
2013-9-21,62,59,56,59,58,55,96,94,91,30.03,29.77,21,12,28,0.00
2013-9-22,63,60,54,61,57,47,96,90,72,29.77,29.60,26,14,33,0.10
2013-9-23,58,53,48,47,44,41,78,71,60,29.92,29.72,17,10,28,0.00
2013-9-24,56,52,49,46,44,41,82,74,68,29.91,29.81,13,7,21,0.00
2013-9-25,61,54,48,49,46,44,85,75,61,29.95,29.83,12,6,22,0.00
2013-9-26,65,56,48,52,49,44,89,76,61,30.10,29.95,12,6,19,0.00
2013-9-27,69,59,55,58,52,50,87,78,61,30.20,30.09,9,5,16,0.00
2013-9-29,60,55,52,56,53,51,96,91,82,30.23,30.11,7,4,10,0.00
2013-9-30,63,54,47,55,51,45,96,89,73,30.13,29.94,8,4,11,0.00
2013-10-1,75,61,50,57,52,46,93,73,46,29.94,29.80,10,6,17,0.00
2013-10-2,67,62,57,60,56,52,91,82,67,29.88,29.73,8,4,14,0.00
2013-10-3,72,62,56,58,52,48,81,69,44,30.04,29.88,8,5,15,0.00
2013-10-4,68,60,52,58,51,45,83,74,57,30.07,30.01,9,3,12,0.00
2013-10-5,59,56,50,52,49,46,93,78,69,30.13,30.06,12,6,15,0.00
2013-10-6,54,52,50,49,46,41,93,78,66,30.27,30.12,18,10,23,0.07
2013-10-7,62,58,53,61,57,49,98,95,89,30.20,29.79,29,17,36,0.23
2013-10-8,62,56,48,58,46,39,96,71,47,30.37,29.82,13,7,24,0.01
2013-10-9,60,50,43,48,42,37,92,74,60,30.47,30.35,7,4,11,0.00
2013-10-10,60,52,43,53,48,42,95,88,73,30.35,30.18,10,4,11,0.00
2013-10-11,64,54,47,56,51,46,96,89,75,30.18,30.11,9,2,13,0.00
2013-10-12,61,55,51,54,50,47,92,85,77,30.41,30.16,23,13,28,0.00
2013-10-13,59,52,45,50,46,42,92,80,67,30.46,30.38,9,5,12,0.00
2013-10-14,58,53,45,52,48,42,91,84,74,30.38,30.24,13,6,15,0.00
2013-10-15,63,57,54,57,53,51,93,88,77,30.27,30.20,7,2,9,0.00
2013-10-16,56,55,54,55,54,52,95,94,91,30.20,29.89,13,6,15,0.00
2013-10-17,58,55,54,57,54,52,97,96,93,29.89,29.71,15,5,18,0.00
2013-10-18,67,59,54,58,53,48,97,81,55,29.81,29.56,22,10,28,0.25
2013-10-19,59,55,46,53,48,42,88,79,71,29.93,29.75,18,8,21,0.00
2013-10-20,62,56,51,54,45,34,95,68,37,29.93,29.65,17,10,28,0.01
2013-10-21,58,53,46,52,45,39,87,76,64,30.07,29.93,14,8,19,0.00
2013-10-22,59,55,48,55,52,45,94,89,85,29.97,29.66,17,11,22,0.01
2013-10-23,53,47,38,44,39,34,92,77,52,29.75,29.56,7,3,10,0.00
2013-10-24,52,47,43,42,34,30,84,63,46,29.79,29.56,17,9,30,0.00
2013-10-25,51,44,40,36,33,29,79,64,49,30.07,29.79,13,9,22,0.00
2013-10-26,52,46,37,43,37,29,77,70,54,30.09,29.84,23,11,33,0.00
2013-10-27,56,48,44,46,39,30,89,72,52,29.98,29.76,16,10,27,0.12
2013-10-28,53,46,37,44,35,26,78,66,53,30.31,29.98,16,9,30,0.00
2013-10-29,47,39,31,34,28,24,75,64,45,30.43,30.32,10,5,16,0.00
2013-10-30,48,42,36,38,33,29,85,71,50,30.33,30.14,9,5,17,0.00
2013-10-31,55,48,34,54,44,29,96,87,74,30.22,29.77,25,13,31,0.49
2013-11-1,59,56,55,57,54,52,96,93,88,29.77,29.35,38,24,45,0.29
2013-11-2,60,53,48,52,48,44,93,83,64,29.72,29.54,10,4,19,0.02
2013-11-3,48,39,32,43,27,20,89,63,43,30.38,29.72,15,7,24,0.04
2013-11-4,41,34,29,23,20,18,68,56,42,30.69,30.38,11,6,19,0.00
2013-11-5,48,41,33,42,33,20,83,72,56,30.69,30.48,17,8,19,0.00
2013-11-6,53,50,47,51,46,40,94,85,76,30.48,29.98,26,16,33,0.00
2013-11-7,55,51,42,54,48,32,96,90,67,29.97,29.60,22,13,31,0.12
2013-11-8,45,41,38,32,28,25,67,60,48,29.95,29.73,18,10,27,0.00
2013-11-9,45,39,32,29,24,22,74,56,40,30.09,29.95,16,8,27,0.00
2013-11-10,47,43,39,43,39,30,91,85,69,30.06,29.68,20,7,25,0.09
2013-11-11,49,44,40,41,34,31,85,70,58,29.99,29.70,19,10,28,0.00
2013-11-12,48,36,30,39,24,18,78,63,53,30.07,29.79,18,12,31,0.00
2013-11-13,35,31,26,23,17,14,66,56,45,30.19,30.06,17,10,30,0.00
2013-11-14,46,41,33,37,30,22,78,64,52,30.06,29.96,15,8,29,0.00
2013-11-15,50,45,36,44,38,30,92,77,59,30.15,30.05,15,6,18,0.00
2013-11-16,51,44,39,45,41,35,95,88,77,30.32,30.14,12,4,16,0.00
2013-11-17,53,48,39,50,46,38,96,92,83,30.33,29.91,25,10,31,0.03
2013-11-18,55,52,46,54,49,39,97,91,63,29.90,29.46,34,13,44,1.45
2013-11-19,51,39,33,40,25,19,69,57,48,30.15,29.54,22,14,42,0.00
2013-11-20,39,34,30,21,15,11,61,47,31,30.60,30.15,19,8,31,0.00
2013-11-21,45,36,28,34,23,14,71,60,44,30.61,30.31,10,5,19,0.00
2013-11-22,44,39,37,38,31,25,92,75,55,30.31,29.75,11,4,17,0.02
2013-11-23,44,38,30,43,31,18,93,75,55,29.75,29.63,23,13,37,0.00
2013-11-24,29,24,20,25,11,6,87,57,45,29.96,29.64,26,19,46,0.00
2013-11-25,37,26,19,29,10,3,71,51,34,30.28,29.96,23,13,39,0.00
2013-11-26,43,36,30,40,30,24,93,81,60,30.29,30.13,19,9,28,0.07
2013-11-27,55,50,39,54,48,37,97,95,89,30.13,29.09,42,21,55,5.95
2013-11-28,39,32,23,37,20,8,92,62,41,30.35,29.25,26,13,48,0.00
2013-11-29,27,23,20,12,10,7,69,58,44,30.71,30.36,16,8,24,0.00
2013-11-30,37,26,16,32,17,10,81,68,48,30.79,30.41,25,8,32,0.00
2013-12-1,42,39,36,39,36,29,100,88,71,30.41,30.03,25,12,31,0.62
2013-12-2,47,43,38,45,42,37,96,95,93,30.03,29.88,27,12,30,1.15
2013-12-3,41,38,35,39,36,32,96,94,89,29.88,29.80,13,7,21,0.00
2013-12-4,41,37,33,32,29,27,88,75,63,30.19,29.84,14,7,22,0.00
2013-12-5,47,42,30,46,39,27,96,90,79,30.23,29.89,18,9,22,0.01
2013-12-6,48,43,38,47,41,31,96,91,73,30.10,29.82,13,4,19,0.08
2013-12-7,38,34,27,31,22,12,86,62,47,30.39,30.04,15,8,24,0.00
2013-12-8,28,26,25,14,11,9,60,52,44,30.56,30.38,16,6,25,0.00
2013-12-9,41,33,26,40,28,13,95,82,55,30.52,29.80,26,17,36,0.10
2013-12-10,37,30,24,34,28,19,95,90,79,29.88,29.69,12,6,21,0.00
2013-12-11,31,27,22,22,19,17,84,70,59,30.10,29.89,18,11,29,0.01
2013-12-12,24,19,16,17,5,-2,81,56,43,30.21,29.97,19,10,33,0.00
2013-12-13,25,20,7,15,8,-5,73,60,45,30.35,29.86,24,14,37,0.00
2013-12-14,21,11,3,18,0,-8,91,62,42,30.61,30.34,20,7,29,0.00
2013-12-15,34,21,14,33,19,12,100,93,91,30.34,29.30,38,16,48,0.00
2013-12-16,26,21,8,23,13,-2,93,72,49,30.17,29.63,21,11,34,0.00
2013-12-17,19,11,0,17,5,-7,92,78,64,30.28,29.99,13,6,21,0.00
2013-12-18,28,21,14,24,18,12,100,91,84,29.98,29.81,18,7,28,0.00
2013-12-19,36,32,27,30,27,24,87,82,76,30.06,29.90,15,9,25,0.02
2013-12-20,44,39,31,41,35,27,95,88,78,30.10,29.88,17,6,20,0.18
2013-12-21,40,37,34,39,36,32,96,95,94,29.93,29.80,11,4,17,0.16
2013-12-22,36,32,28,35,30,27,96,95,94,30.05,29.86,21,8,26,0.47
2013-12-23,33,31,29,32,30,27,96,96,95,30.08,29.93,9,4,15,0.32
2013-12-24,33,25,15,32,23,11,96,90,81,30.14,30.03,11,4,21,0.00
2013-12-25,19,14,9,14,9,4,86,80,75,30.53,30.13,17,8,30,0.00
2013-12-26,38,27,18,36,24,14,94,90,77,30.50,30.03,23,10,28,0.13
2013-12-27,32,28,22,28,24,19,91,84,75,30.17,30.08,14,7,21,0.03
2013-12-28,37,34,27,34,30,23,89,83,79,30.14,29.92,20,8,28,0.01
2013-12-29,42,36,30,41,34,28,98,93,88,30.00,29.44,13,5,23,0.83
2013-12-30,32,22,8,28,18,1,94,83,65,30.16,29.43,18,8,30,0.00
2013-12-31,15,10,3,9,3,-3,83,75,59,30.16,30.01,9,5,18,0.00
2014-1-1,22,17,9,14,9,0,86,72,53,30.38,30.08,17,8,27,0.00
2014-1-2,9,0,-6,0,-5,-9,85,79,63,30.42,29.96,17,9,28,0.00